createdAt,value
2023-02-21T00:00:13.377Z,2.77
2023-02-21T00:02:58.314Z,3.30
2023-02-21T00:05:43.312Z,2.77
2023-02-21T00:08:28.066Z,2.97
2023-02-21T00:11:13.428Z,2.63
2023-02-21T00:13:58.474Z,2.90
2023-02-21T00:16:43.469Z,2.83
2023-02-21T00:19:28.355Z,2.80
2023-02-21T00:22:13.335Z,2.27
2023-02-21T00:24:57.824Z,2.27
2023-02-21T00:27:43.896Z,2.17
2023-02-21T00:30:30.582Z,2.60
2023-02-21T00:33:15.245Z,2.97
2023-02-21T00:36:00.023Z,2.97
2023-02-21T00:38:44.632Z,2.80
2023-02-21T00:41:29.975Z,3.20
2023-02-21T00:44:14.786Z,2.80
2023-02-21T00:46:59.716Z,2.80
2023-02-21T00:49:44.580Z,2.50
2023-02-21T00:52:29.653Z,2.90
2023-02-21T00:55:14.578Z,2.77
2023-02-21T00:57:59.430Z,2.87
2023-02-21T01:00:44.760Z,2.13
2023-02-21T01:03:29.970Z,2.77
2023-02-21T01:06:15.080Z,2.87
2023-02-21T01:09:02.070Z,2.10
2023-02-21T01:11:47.622Z,2.20
2023-02-21T01:14:32.945Z,2.40
2023-02-21T01:17:18.281Z,2.80
2023-02-21T01:20:03.201Z,2.60
2023-02-21T01:22:47.978Z,3.03
2023-02-21T01:25:33.385Z,2.63
2023-02-21T01:28:18.242Z,2.37
2023-02-21T01:31:03.138Z,2.37
2023-02-21T01:33:53.032Z,2.43
2023-02-21T01:36:37.805Z,2.30
2023-02-21T01:39:22.665Z,2.20
2023-02-21T01:42:07.457Z,1.90
2023-02-21T01:45:01.925Z,2.40
2023-02-21T01:47:47.866Z,2.60
2023-02-21T01:50:47.554Z,2.33
2023-02-21T01:53:40.538Z,2.37
2023-02-21T01:56:26.880Z,1.97
2023-02-21T01:59:16.822Z,2.67
2023-02-21T02:02:27.328Z,2.20
2023-02-21T02:05:13.852Z,2.07
2023-02-21T02:07:59.262Z,2.07
2023-02-21T02:10:44.082Z,2.33
2023-02-21T02:16:53.266Z,2.13
2023-02-21T02:25:05.723Z,2.20
2023-02-21T02:32:14.160Z,2.03
2023-02-21T02:35:34.195Z,1.80
2023-02-21T02:38:30.620Z,1.90
2023-02-21T02:41:26.239Z,1.90
2023-02-21T02:44:15.199Z,2.20
2023-02-21T02:46:46.708Z,1.80
2023-02-21T02:49:28.919Z,1.97
2023-02-21T02:52:03.822Z,1.90
2023-02-21T02:54:30.667Z,1.70
2023-02-21T02:56:58.370Z,1.63
2023-02-21T02:59:32.677Z,1.93
2023-02-21T03:06:15.712Z,1.80
2023-02-21T03:09:11.113Z,1.77
2023-02-21T03:11:56.351Z,1.90
2023-02-21T03:14:29.904Z,2.20
2023-02-21T03:17:08.530Z,1.70
2023-02-21T03:19:45.515Z,1.77
2023-02-21T03:22:18.386Z,1.80
2023-02-21T03:24:48.774Z,1.80
2023-02-21T03:27:17.288Z,1.80
2023-02-21T03:29:44.558Z,1.60
2023-02-21T03:32:39.772Z,1.73
2023-02-21T03:35:07.182Z,1.67
2023-02-21T03:37:51.420Z,1.80
2023-02-21T03:40:28.115Z,1.70
2023-02-21T03:42:58.337Z,2.00
2023-02-21T03:45:24.844Z,2.73
2023-02-21T03:47:51.521Z,1.50
2023-02-21T03:50:18.592Z,1.50
2023-02-21T03:52:45.080Z,1.73
2023-02-21T03:55:11.558Z,1.50
2023-02-21T03:57:38.114Z,1.63
2023-02-21T04:00:05.960Z,1.50
2023-02-21T04:02:32.484Z,1.57
2023-02-21T04:04:59.651Z,1.80
2023-02-21T04:07:26.308Z,1.70
2023-02-21T04:09:55.486Z,1.57
2023-02-21T04:12:22.182Z,1.60
2023-02-21T04:14:48.645Z,1.93
2023-02-21T04:17:15.504Z,1.87
2023-02-21T04:19:42.002Z,1.87
2023-02-21T04:22:08.475Z,1.70
2023-02-21T04:24:34.964Z,1.20
2023-02-21T04:27:01.591Z,1.63
2023-02-21T04:29:28.165Z,1.70
2023-02-21T04:31:55.009Z,2.10
2023-02-21T04:34:22.102Z,1.73
2023-02-21T04:36:48.575Z,1.40
2023-02-21T04:39:15.130Z,1.70
2023-02-21T04:41:42.645Z,1.53
2023-02-21T04:44:09.541Z,1.70
2023-02-21T04:46:36.034Z,1.17
2023-02-21T04:49:02.673Z,1.93
2023-02-21T04:51:29.132Z,1.70
2023-02-21T04:53:55.998Z,1.60
2023-02-21T04:56:26.624Z,2.30
2023-02-21T04:58:53.189Z,2.60
2023-02-21T05:01:21.119Z,1.07
2023-02-21T05:03:48.698Z,1.50
2023-02-21T05:06:25.816Z,1.53
2023-02-21T05:08:52.449Z,1.37
2023-02-21T05:11:20.590Z,1.33
2023-02-21T05:13:47.823Z,1.73
2023-02-21T05:16:15.319Z,1.60
2023-02-21T05:18:43.922Z,1.47
2023-02-21T05:21:10.672Z,1.40
2023-02-21T05:23:39.417Z,1.63
2023-02-21T05:26:14.717Z,1.43
2023-02-21T05:28:41.264Z,3.47
2023-02-21T05:31:08.173Z,1.60
2023-02-21T05:33:34.821Z,1.43
2023-02-21T05:36:01.853Z,2.07
2023-02-21T05:38:28.293Z,1.87
2023-02-21T05:40:54.801Z,1.60
2023-02-21T05:43:21.279Z,1.60
2023-02-21T05:45:47.832Z,1.67
2023-02-21T05:48:14.672Z,1.77
2023-02-21T05:50:41.163Z,1.90
2023-02-21T05:53:09.543Z,1.60
2023-02-21T05:55:36.625Z,1.63
2023-02-21T05:58:03.108Z,1.40
2023-02-21T06:00:31.084Z,2.43
2023-02-21T06:02:57.905Z,1.70
2023-02-21T06:05:24.966Z,1.83
2023-02-21T06:07:51.754Z,2.30
2023-02-21T06:10:19.314Z,1.50
2023-02-21T06:12:46.336Z,1.53
2023-02-21T06:15:12.949Z,1.80
2023-02-21T06:17:41.394Z,1.80
2023-02-21T06:20:14.236Z,1.93
2023-02-21T06:22:40.730Z,1.83
2023-02-21T06:25:08.099Z,9.20
2023-02-21T06:27:35.156Z,7.77
2023-02-21T06:30:04.695Z,2.53
2023-02-21T06:32:31.164Z,1.70
2023-02-21T06:34:57.622Z,1.63
2023-02-21T06:37:24.205Z,8.60
2023-02-21T06:39:50.682Z,3.47
2023-02-21T06:42:18.080Z,2.10
2023-02-21T06:44:46.824Z,1.40
2023-02-21T06:47:14.204Z,2.00
2023-02-21T06:49:41.350Z,1.80
2023-02-21T06:52:08.840Z,1.80
2023-02-21T06:54:35.636Z,1.83
2023-02-21T06:57:02.119Z,1.90
2023-02-21T06:59:29.384Z,2.23
2023-02-21T07:01:56.765Z,2.10
2023-02-21T07:04:24.462Z,2.33
2023-02-21T07:06:51.763Z,1.83
2023-02-21T07:09:18.309Z,3.13
2023-02-21T07:11:46.136Z,3.30
2023-02-21T07:14:13.570Z,3.57
2023-02-21T07:16:40.044Z,3.80
2023-02-21T07:19:06.533Z,3.90
2023-02-21T07:21:33.004Z,5.20
2023-02-21T07:23:59.520Z,7.23
2023-02-21T07:26:25.975Z,5.40
2023-02-21T07:28:52.520Z,6.87
2023-02-21T07:31:20.236Z,6.80
2023-02-21T07:33:46.849Z,7.03
2023-02-21T07:36:13.468Z,7.10
2023-02-21T07:38:39.963Z,6.67
2023-02-21T07:41:06.444Z,6.73
2023-02-21T07:43:33.104Z,6.20
2023-02-21T07:46:00.271Z,6.30
2023-02-21T07:48:28.930Z,6.60
2023-02-21T07:50:55.865Z,6.37
2023-02-21T07:53:22.363Z,6.27
2023-02-21T07:55:48.844Z,6.23
2023-02-21T07:58:15.418Z,6.50
2023-02-21T08:00:41.901Z,5.50
2023-02-21T08:03:13.623Z,6.40
2023-02-21T08:05:40.433Z,6.27
2023-02-21T08:08:08.768Z,6.10
2023-02-21T08:10:36.145Z,5.33
2023-02-21T08:13:02.716Z,4.63
2023-02-21T08:15:29.172Z,4.70
2023-02-21T08:17:55.676Z,4.60
2023-02-21T08:20:22.368Z,3.70
2023-02-21T08:22:49.057Z,4.90
2023-02-21T08:25:16.802Z,4.60
2023-02-21T08:27:44.292Z,3.93
2023-02-21T08:30:14.344Z,4.20
2023-02-21T08:32:40.898Z,4.00
2023-02-21T08:35:07.841Z,4.23
2023-02-21T08:37:35.636Z,3.97
2023-02-21T08:40:03.808Z,4.47
2023-02-21T08:42:30.294Z,4.60
2023-02-21T08:44:56.870Z,4.43
2023-02-21T08:47:23.754Z,3.80
2023-02-21T08:49:50.212Z,5.17
2023-02-21T08:52:20.471Z,4.93
2023-02-21T08:54:47.070Z,4.17
2023-02-21T08:57:13.908Z,4.27
2023-02-21T08:59:44.402Z,4.00
2023-02-21T09:02:21.144Z,3.73
2023-02-21T09:04:48.057Z,4.17
2023-02-21T09:07:18.200Z,3.57
2023-02-21T09:09:45.742Z,3.60
2023-02-21T09:12:12.478Z,3.60
2023-02-21T09:14:41.965Z,3.70
2023-02-21T09:17:12.224Z,4.43
2023-02-21T09:19:39.094Z,5.70
2023-02-21T09:22:08.731Z,5.23
2023-02-21T09:24:35.224Z,4.97
2023-02-21T09:27:04.515Z,4.30
2023-02-21T09:29:44.956Z,5.50
2023-02-21T09:32:13.003Z,4.80
2023-02-21T09:34:39.518Z,4.67
2023-02-21T09:37:06.322Z,5.17
2023-02-21T09:39:32.808Z,4.67
2023-02-21T09:41:59.445Z,4.37
2023-02-21T09:44:28.758Z,4.37
2023-02-21T09:47:04.360Z,4.40
2023-02-21T09:49:43.219Z,4.22
2023-02-21T09:52:29.793Z,4.20
2023-02-21T09:55:02.452Z,4.17
2023-02-21T09:57:28.977Z,4.53
2023-02-21T09:59:55.444Z,5.03
2023-02-21T10:02:53.810Z,3.22
2023-02-21T10:06:55.979Z,4.12
2023-02-21T10:17:31.190Z,3.70
2023-02-21T10:20:19.517Z,1.80
2023-02-21T10:22:49.798Z,1.67
2023-02-21T10:25:33.148Z,1.40
2023-02-21T10:28:00.318Z,1.40
2023-02-21T10:30:35.951Z,1.10
2023-02-21T10:33:07.109Z,1.55
2023-02-21T10:35:35.367Z,1.00
2023-02-21T10:38:10.222Z,1.20
2023-02-21T10:40:45.922Z,1.25
2023-02-21T10:48:36.415Z,0.90
2023-02-21T10:51:36.131Z,1.08
2023-02-21T10:54:24.088Z,1.27
2023-02-21T10:56:53.284Z,1.60
2023-02-21T10:59:26.404Z,1.00
2023-02-21T11:01:55.525Z,1.40
2023-02-21T11:04:36.014Z,1.20
2023-02-21T11:07:15.086Z,1.05
2023-02-21T11:09:47.276Z,0.90
2023-02-21T11:12:32.153Z,0.98
2023-02-21T11:15:17.976Z,0.90
2023-02-21T11:17:46.232Z,0.80
2023-02-21T11:20:23.652Z,0.80
2023-02-21T11:22:50.697Z,1.20
2023-02-21T11:25:39.268Z,1.15
2023-02-21T11:28:42.800Z,1.23
2023-02-21T11:31:30.218Z,1.30
2023-02-21T11:34:01.243Z,1.12
2023-02-21T11:36:34.669Z,1.17
2023-02-21T11:39:20.879Z,1.12
2023-02-21T11:41:54.544Z,1.23
2023-02-21T11:45:29.948Z,1.25
2023-02-21T11:48:06.460Z,1.23
2023-02-21T11:50:48.420Z,0.98
2023-02-21T11:53:41.091Z,1.17
2023-02-21T12:00:30.218Z,1.27
2023-02-21T12:06:41.312Z,1.23
2023-02-21T12:10:00.771Z,0.80
2023-02-21T12:12:56.184Z,1.12
2023-02-21T12:18:19.804Z,1.00
2023-02-21T12:24:18.531Z,1.10
2023-02-21T12:31:14.185Z,0.82
2023-02-21T12:34:14.966Z,0.70
2023-02-21T12:38:53.555Z,0.82
2023-02-21T12:42:05.091Z,0.70
2023-02-21T12:48:16.311Z,0.70
2023-02-21T12:50:51.408Z,0.65
2023-02-21T12:53:41.668Z,0.75
2023-02-21T12:56:17.558Z,0.50
2023-02-21T13:00:51.022Z,0.50
2023-02-21T13:05:13.024Z,0.47
2023-02-21T13:08:04.059Z,0.40
2023-02-21T13:11:31.076Z,0.50
2023-02-21T13:13:59.868Z,0.60
2023-02-21T13:16:26.706Z,0.75
2023-02-21T13:19:01.416Z,0.60
2023-02-21T13:24:14.293Z,0.57
2023-02-21T13:29:50.118Z,0.40
2023-02-21T13:32:19.712Z,0.60
2023-02-21T13:34:59.048Z,0.50
2023-02-21T13:37:30.332Z,0.55
2023-02-21T13:40:22.963Z,0.68
2023-02-21T13:43:04.791Z,0.82
2023-02-21T13:45:32.113Z,0.68
2023-02-21T13:48:43.707Z,0.40
2023-02-21T13:51:52.195Z,0.50
2023-02-21T13:54:24.522Z,0.40
2023-02-21T13:56:51.769Z,0.50
2023-02-21T13:59:33.997Z,0.40
2023-02-21T14:02:36.991Z,0.35
2023-02-21T14:05:06.416Z,0.50
2023-02-21T14:07:53.999Z,0.50
2023-02-21T14:11:28.853Z,0.40
2023-02-21T14:14:24.639Z,0.47
2023-02-21T14:17:02.877Z,0.43
2023-02-21T14:19:51.931Z,0.60
2023-02-21T14:22:27.650Z,0.50
2023-02-21T14:25:20.562Z,0.60
2023-02-21T14:27:47.090Z,0.40
2023-02-21T14:30:32.583Z,0.40
2023-02-21T14:33:24.794Z,0.50
2023-02-21T14:36:05.245Z,0.40
2023-02-21T14:38:41.019Z,0.68
2023-02-21T14:42:16.943Z,0.50
2023-02-21T14:47:47.409Z,0.60
2023-02-21T14:56:01.421Z,0.45
2023-02-21T14:59:15.514Z,0.40
2023-02-21T15:03:48.519Z,0.40
2023-02-21T15:06:21.948Z,0.70
2023-02-21T15:08:51.873Z,0.62
2023-02-21T15:11:39.071Z,0.50
2023-02-21T15:15:45.003Z,0.40
2023-02-21T15:20:18.060Z,0.50
2023-02-21T15:22:44.558Z,0.40
2023-02-21T15:25:16.596Z,0.30
2023-02-21T15:28:30.041Z,0.65
2023-02-21T15:31:07.809Z,0.50
2023-02-21T15:33:37.688Z,0.50
2023-02-21T15:36:21.646Z,0.65
2023-02-21T15:39:23.276Z,0.70
2023-02-21T15:41:53.104Z,0.90
2023-02-21T15:44:37.367Z,1.58
2023-02-21T15:47:26.765Z,1.60
2023-02-21T15:51:45.069Z,2.30
2023-02-21T15:54:44.929Z,4.90
2023-02-21T15:57:23.547Z,3.97
2023-02-21T16:00:22.629Z,3.33
2023-02-21T16:02:49.308Z,3.37
2023-02-21T16:05:30.151Z,3.03
2023-02-21T16:08:04.036Z,5.97
2023-02-21T16:10:31.603Z,3.40
2023-02-21T16:13:01.262Z,3.12
2023-02-21T16:15:32.217Z,3.30
2023-02-21T16:18:04.553Z,5.28
2023-02-21T16:20:35.504Z,6.82
2023-02-21T16:25:26.087Z,9.88
2023-02-21T16:27:59.493Z,7.12
2023-02-21T16:30:29.998Z,6.13
2023-02-21T16:33:03.866Z,6.32
2023-02-21T16:35:32.663Z,7.10
2023-02-21T16:38:01.108Z,7.07
2023-02-21T16:40:34.528Z,6.62
2023-02-21T16:43:04.027Z,5.23
2023-02-21T16:45:32.010Z,4.33
2023-02-21T16:48:05.499Z,4.07
2023-02-21T16:50:39.027Z,4.20
2023-02-21T16:53:06.882Z,4.33
2023-02-21T16:55:33.378Z,4.50
2023-02-21T16:58:07.249Z,4.40
2023-02-21T17:00:35.656Z,3.97
2023-02-21T17:03:02.338Z,4.73
2023-02-21T17:05:28.962Z,5.10
2023-02-21T17:07:57.713Z,4.80
2023-02-21T17:10:24.415Z,5.23
2023-02-21T17:12:50.904Z,5.63
2023-02-21T17:15:17.530Z,5.47
2023-02-21T17:17:51.000Z,6.40
2023-02-21T17:20:19.834Z,6.30
2023-02-21T17:22:47.563Z,6.10
2023-02-21T17:25:15.777Z,6.37
2023-02-21T17:27:42.313Z,5.87
2023-02-21T17:30:11.802Z,5.27
2023-02-21T17:32:38.641Z,5.00
2023-02-21T17:35:05.834Z,5.27
2023-02-21T17:37:32.335Z,5.37
2023-02-21T17:39:58.790Z,5.67
2023-02-21T17:42:25.536Z,5.07
2023-02-21T17:44:52.496Z,4.87
2023-02-21T17:47:21.502Z,4.67
2023-02-21T17:49:50.129Z,4.57
2023-02-21T17:52:17.727Z,4.93
2023-02-21T17:54:44.229Z,5.03
2023-02-21T17:57:11.114Z,5.23
2023-02-21T17:59:38.831Z,4.70
2023-02-21T18:02:07.413Z,3.60
2023-02-21T18:04:34.102Z,3.40
2023-02-21T18:07:00.574Z,3.50
2023-02-21T18:09:27.063Z,3.40
2023-02-21T18:11:56.915Z,3.47
2023-02-21T18:14:26.217Z,3.27
2023-02-21T18:16:55.537Z,3.50
2023-02-21T18:19:23.539Z,3.17
2023-02-21T18:21:50.031Z,3.07
2023-02-21T18:24:18.387Z,2.63
2023-02-21T18:26:45.827Z,2.80
2023-02-21T18:29:12.374Z,3.60
2023-02-21T18:31:38.920Z,3.83
2023-02-21T18:34:06.839Z,3.10
2023-02-21T18:36:35.440Z,3.20
2023-02-21T18:39:02.805Z,3.20
2023-02-21T18:41:32.228Z,3.27
2023-02-21T18:43:58.713Z,3.00
2023-02-21T18:46:25.188Z,3.13
2023-02-21T18:48:51.661Z,3.50
2023-02-21T18:51:20.062Z,3.27
2023-02-21T18:53:50.007Z,3.03
2023-02-21T18:56:19.631Z,3.10
2023-02-21T18:58:48.623Z,3.03
2023-02-21T19:01:18.454Z,3.67
2023-02-21T19:03:45.259Z,3.97
2023-02-21T19:06:16.487Z,3.90
2023-02-21T19:08:45.011Z,4.10
2023-02-21T19:11:15.066Z,3.90
2023-02-21T19:13:46.397Z,4.07
2023-02-21T19:16:14.008Z,4.30
2023-02-21T19:18:40.600Z,3.67
2023-02-21T19:21:11.608Z,3.73
2023-02-21T19:23:41.743Z,3.50
2023-02-21T19:26:08.660Z,3.90
2023-02-21T19:28:36.647Z,3.37
2023-02-21T19:31:03.661Z,3.70
2023-02-21T19:33:30.171Z,3.20
2023-02-21T19:35:56.688Z,3.57
2023-02-21T19:38:23.149Z,2.97
2023-02-21T19:40:49.640Z,3.10
2023-02-21T19:43:16.117Z,3.60
2023-02-21T19:45:44.035Z,3.27
2023-02-21T19:48:10.551Z,3.30
2023-02-21T19:50:37.026Z,3.20
2023-02-21T19:53:03.969Z,2.90
2023-02-21T19:55:30.483Z,3.10
2023-02-21T19:57:57.130Z,3.10
2023-02-21T20:00:26.387Z,2.87
2023-02-21T20:02:53.350Z,2.53
2023-02-21T20:05:20.204Z,2.57
2023-02-21T20:07:46.701Z,2.90
2023-02-21T20:10:13.201Z,3.20
2023-02-21T20:12:39.715Z,2.83
2023-02-21T20:15:09.849Z,2.50
2023-02-21T20:17:36.986Z,2.43
2023-02-21T20:20:10.605Z,2.50
2023-02-21T20:22:39.861Z,2.80
2023-02-21T20:25:07.489Z,2.53
2023-02-21T20:27:35.038Z,2.77
2023-02-21T20:30:02.094Z,3.07
2023-02-21T20:32:28.637Z,3.37
2023-02-21T20:34:56.039Z,3.13
2023-02-21T20:37:22.732Z,2.43
2023-02-21T20:39:50.275Z,3.13
2023-02-21T20:42:17.360Z,3.30
2023-02-21T20:44:43.989Z,2.57
2023-02-21T20:47:11.103Z,2.80
2023-02-21T20:49:38.197Z,2.70
2023-02-21T20:52:05.067Z,2.93
2023-02-21T20:54:31.553Z,3.10
2023-02-21T20:56:58.205Z,2.83
2023-02-21T20:59:33.636Z,2.80
2023-02-21T21:02:01.577Z,2.40
2023-02-21T21:04:32.139Z,2.87
2023-02-21T21:07:12.913Z,2.90
2023-02-21T21:09:40.445Z,3.27
2023-02-21T21:12:14.582Z,2.40
2023-02-21T21:14:44.445Z,3.10
2023-02-21T21:17:15.375Z,2.73
2023-02-21T21:19:45.694Z,2.70
2023-02-21T21:22:17.791Z,2.83
2023-02-21T21:24:44.627Z,2.50
2023-02-21T21:27:14.540Z,2.63
2023-02-21T21:29:43.762Z,2.57
2023-02-21T21:32:14.122Z,2.30
2023-02-21T21:34:46.065Z,2.50
2023-02-21T21:37:14.097Z,2.20
2023-02-21T21:39:45.056Z,2.13
2023-02-21T21:42:16.018Z,1.90
2023-02-21T21:44:47.226Z,2.27
2023-02-21T21:47:14.849Z,2.37
2023-02-21T21:49:41.712Z,2.67
2023-02-21T21:52:09.521Z,4.13
2023-02-21T21:54:36.880Z,2.73
2023-02-21T21:57:04.728Z,2.40
2023-02-21T21:59:31.867Z,1.90
2023-02-21T22:01:58.853Z,1.90
2023-02-21T22:04:26.422Z,2.03
2023-02-21T22:06:55.783Z,1.97
2023-02-21T22:09:24.663Z,2.50
2023-02-21T22:11:54.202Z,2.20
2023-02-21T22:14:22.120Z,2.30
2023-02-21T22:16:51.032Z,2.70
2023-02-21T22:19:21.144Z,2.07
2023-02-21T22:21:48.321Z,1.93
2023-02-21T22:24:19.929Z,2.17
2023-02-21T22:26:46.446Z,1.33
2023-02-21T22:29:16.036Z,1.77
2023-02-21T22:31:45.460Z,2.53
2023-02-21T22:34:22.869Z,2.07
2023-02-21T22:36:55.638Z,1.70
2023-02-21T22:39:23.986Z,2.10
2023-02-21T22:41:51.423Z,1.50
2023-02-21T22:44:18.436Z,1.83
2023-02-21T22:46:59.982Z,1.50
2023-02-21T22:49:27.519Z,1.43
2023-02-21T22:51:54.421Z,1.60
2023-02-21T22:54:20.880Z,1.70
2023-02-21T22:56:50.164Z,1.87
2023-02-21T22:59:19.135Z,1.70
2023-02-21T23:01:45.725Z,1.50
2023-02-21T23:04:27.371Z,1.77
2023-02-21T23:06:57.267Z,1.83
2023-02-21T23:09:26.155Z,1.60
2023-02-21T23:11:57.662Z,1.53
2023-02-21T23:14:25.066Z,1.73
2023-02-21T23:16:56.626Z,2.30
2023-02-21T23:19:24.779Z,2.40
2023-02-21T23:21:53.253Z,1.77
2023-02-21T23:24:21.796Z,1.53
2023-02-21T23:26:50.247Z,1.73
2023-02-21T23:29:23.246Z,1.23
2023-02-21T23:31:51.251Z,1.53
2023-02-21T23:34:18.985Z,1.80
2023-02-21T23:36:45.572Z,1.67
2023-02-21T23:39:14.331Z,2.00
2023-02-21T23:41:47.692Z,2.30
2023-02-21T23:44:15.027Z,2.23
2023-02-21T23:46:44.208Z,1.40
2023-02-21T23:49:16.185Z,1.17
2023-02-21T23:51:45.998Z,1.40
2023-02-21T23:54:14.321Z,1.50
2023-02-21T23:56:40.967Z,1.33
2023-02-21T23:59:07.792Z,1.43
